Time;durP1;ratioP1;P1;durP2;ratioP2;P2;SDS_P1;SDS_P2;PMS_P1;PMS_P2;Temp;Humidity;BMP_temperature;BMP_pressure;BME280_temperature;BME280_humidity;BME280_pressure;Samples;Min_cycle;Max_cycle;Signal;HPM_P1;HPM_P2
2022/05/11 00:00:11;;;;;;;15.27;13.97;;;17.50;65.80;;;16.54;63.86;97993.41;5080927;28;20456;-71
2022/05/11 00:02:39;;;;;;;15.23;13.93;;;17.50;66.00;;;16.50;63.98;97987.63;5076240;28;20476;-71
2022/05/11 00:05:11;;;;;;;15.67;14.37;;;17.40;66.10;;;16.55;63.89;97978.69;5079664;28;20536;-72
2022/05/11 00:07:38;;;;;;;15.90;14.50;;;17.40;66.40;;;16.51;63.53;97977.56;5073995;28;20487;-71
2022/05/11 00:10:11;;;;;;;15.20;13.73;;;17.40;66.30;;;16.59;63.62;97977.09;5081623;28;20474;-71
2022/05/11 00:12:39;;;;;;;15.37;14.00;;;17.40;66.50;;;16.46;64.33;97978.31;5079125;28;20439;-71
2022/05/11 00:15:09;;;;;;;15.73;14.33;;;17.40;66.70;;;16.26;64.53;97962.53;5076115;28;20539;-71
2022/05/11 00:17:36;;;;;;;14.50;13.40;;;17.30;66.80;;;16.42;64.13;97975.28;5082882;28;20459;-71
2022/05/11 00:20:04;;;;;;;14.60;13.40;;;17.30;67.00;;;16.37;64.49;97971.66;5078651;28;20579;-71
2022/05/11 00:22:32;;;;;;;14.43;13.03;;;17.30;67.20;;;16.33;64.75;97971.38;5087433;28;20935;-72
2022/05/11 00:25:00;;;;;;;14.80;13.50;;;17.20;67.30;;;16.32;64.15;97968.88;5086492;28;20451;-72
2022/05/11 00:27:27;;;;;;;15.23;14.10;;;17.20;67.40;;;16.21;64.69;97976.13;5105463;28;20465;-71
2022/05/11 00:29:53;;;;;;;14.57;13.37;;;17.10;67.50;;;16.22;64.72;97970.41;5089466;28;20497;-71
2022/05/11 00:32:24;;;;;;;16.00;14.50;;;17.10;67.70;;;16.16;64.69;97978.78;5082741;28;20463;-71
2022/05/11 00:34:51;;;;;;;14.80;13.70;;;17.00;67.70;;;16.07;65.17;97971.03;5086345;28;20536;-71
2022/05/11 00:37:18;;;;;;;15.07;13.90;;;17.00;68.10;;;15.93;65.83;97969.75;5079146;28;20940;-71
2022/05/11 00:39:48;;;;;;;14.80;13.40;;;16.90;68.50;;;15.81;66.20;97959.75;5083913;28;20460;-71
2022/05/11 00:42:15;;;;;;;13.83;12.73;;;16.80;69.20;;;15.75;66.49;97960.78;5077553;28;20942;-70
2022/05/11 00:44:43;;;;;;;14.67;13.40;;;16.70;69.20;;;15.84;66.24;97972.88;5082155;28;21250;-72
2022/05/11 00:47:18;;;;;;;16.17;14.63;;;16.70;69.30;;;15.72;66.72;97974.91;5081171;28;20749;-72
2022/05/11 00:49:50;;;;;;;15.50;13.97;;;16.60;70.00;;;15.66;67.34;97965.00;5086159;28;20466;-72
2022/05/11 00:52:23;;;;;;;14.70;13.30;;;16.50;70.80;;;15.71;67.32;97970.53;5076685;28;20460;-72
2022/05/11 00:54:56;;;;;;;14.47;13.37;;;16.50;70.90;;;15.78;66.77;97956.72;5083425;28;20467;-70
2022/05/11 00:57:30;;;;;;;15.50;14.20;;;16.60;70.90;;;15.75;67.12;97982.56;5075156;28;21049;-71
2022/05/11 00:59:59;;;;;;;15.40;14.10;;;16.60;71.20;;;15.65;67.71;97971.50;5082446;28;20810;-72
2022/05/11 01:02:27;;;;;;;14.50;13.40;;;16.50;71.60;;;15.56;67.88;97963.78;5082019;28;21279;-71
2022/05/11 01:05:00;;;;;;;16.43;14.87;;;16.50;72.10;;;15.60;68.28;97963.28;5082774;28;20531;-71
2022/05/11 01:07:29;;;;;;;14.80;13.40;;;16.40;72.40;;;15.49;68.74;97952.22;5080320;28;20489;-70
2022/05/11 01:09:57;;;;;;;14.37;13.10;;;16.40;72.80;;;15.51;69.04;97958.25;5087809;28;20480;-70
2022/05/11 01:12:29;;;;;;;14.90;13.50;;;16.40;73.40;;;15.44;68.73;97952.97;5082234;28;20910;-71
2022/05/11 01:15:00;;;;;;;15.37;14.17;;;16.30;73.40;;;15.43;68.91;97955.94;5087115;28;20455;-71
2022/05/11 01:17:28;;;;;;;16.17;14.70;;;16.30;73.70;;;15.44;68.83;97961.13;5080136;28;20447;-71
2022/05/11 01:19:56;;;;;;;15.93;14.63;;;16.30;73.80;;;15.43;69.22;97947.78;5084166;28;20518;-72
2022/05/11 01:22:32;;;;;;;14.67;13.43;;;16.30;74.20;;;15.37;69.79;97949.59;5090181;28;20450;-72
2022/05/11 01:25:03;;;;;;;15.50;14.17;;;16.30;74.50;;;15.42;69.45;97957.84;5090190;28;20447;-70
2022/05/11 01:27:33;;;;;;;15.17;13.87;;;16.20;74.80;;;15.44;68.84;97952.16;5101949;28;20528;-72
2022/05/11 01:30:06;;;;;;;14.90;13.67;;;16.30;74.30;;;15.46;68.62;97950.00;5083644;28;20908;-72
2022/05/11 01:32:33;;;;;;;14.53;13.33;;;16.30;74.10;;;15.48;67.80;97950.56;5085780;28;20555;-72
2022/05/11 01:35:20;;;;;;;16.17;14.77;;;16.40;73.90;;;15.41;68.45;97953.47;5083293;28;20456;-72
2022/05/11 01:38:05;;;;;;;14.53;13.33;;;16.30;74.00;;;15.38;68.72;97953.13;5079591;28;21700;-72
2022/05/11 01:40:33;;;;;;;16.57;13.83;;;16.30;74.30;;;15.34;69.17;97952.00;5082043;28;20464;-71
2022/05/11 01:43:00;;;;;;;14.87;13.77;;;16.20;74.90;;;15.35;69.14;97951.75;5104972;28;20508;-71
2022/05/11 01:45:28;;;;;;;14.50;13.30;;;16.20;75.30;;;15.32;68.97;97954.97;5082078;28;20459;-72
2022/05/11 01:47:55;;;;;;;14.60;13.40;;;16.10;74.90;;;15.35;69.17;97950.91;5088114;28;20463;-71
2022/05/11 01:50:25;;;;;;;15.53;14.30;;;16.20;75.00;;;15.29;69.17;97953.56;5077305;28;20479;-71
2022/05/11 01:52:53;;;;;;;14.80;13.40;;;16.10;74.90;;;15.32;68.48;97954.13;5083105;28;20447;-71
2022/05/11 01:55:20;;;;;;;15.30;14.10;;;16.20;74.70;;;15.26;69.09;97959.50;5078497;28;20483;-70
2022/05/11 01:57:48;;;;;;;16.20;14.80;;;16.10;75.00;;;15.21;69.51;97956.69;5083208;28;20535;-70
2022/05/11 02:00:15;;;;;;;15.40;14.23;;;16.10;75.30;;;15.20;69.78;97954.22;5078797;28;20479;-71
2022/05/11 02:02:43;;;;;;;15.40;14.10;;;16.10;75.70;;;15.10;69.33;97946.72;5082645;28;20452;-71
2022/05/11 02:07:56;;;;;;;15.23;13.93;;;16.00;75.40;;;15.11;69.18;97948.38;5086632;28;20468;-70
2022/05/11 02:10:26;;;;;;;15.97;14.40;;;16.00;75.30;;;15.08;69.24;97951.56;5085309;28;20474;-70
2022/05/11 02:12:57;;;;;;;14.40;13.30;;;16.00;75.30;;;15.06;69.26;97946.38;5079626;28;20456;-70
2022/05/11 02:15:25;;;;;;;15.57;14.00;;;16.00;75.40;;;14.98;69.68;97942.19;5074343;28;20563;-71
2022/05/11 02:17:54;;;;;;;16.40;14.70;;;15.90;75.50;;;15.00;70.05;97950.91;5082736;28;20569;-71
2022/05/11 02:20:22;;;;;;;15.70;14.40;;;15.90;76.00;;;14.95;70.32;97947.28;5081608;28;21090;-71
2022/05/11 02:22:50;;;;;;;16.57;15.27;;;15.90;76.20;;;15.01;69.53;97951.72;5087531;28;20451;-70
2022/05/11 02:25:19;;;;;;;16.20;14.83;;;15.90;76.00;;;14.96;70.28;97949.75;5076237;28;20931;-70
2022/05/11 02:27:48;;;;;;;16.23;14.83;;;15.90;76.40;;;14.76;71.18;97949.38;5081244;28;20527;-70
2022/05/11 02:30:21;;;;;;;15.60;14.20;;;15.80;76.80;;;14.75;70.99;97950.47;5081563;28;20463;-70
2022/05/11 02:32:48;;;;;;;15.70;14.40;;;15.70;77.20;;;14.64;71.99;97947.53;5085092;28;20462;-72
2022/05/11 02:35:17;;;;;;;15.13;13.93;;;15.50;77.70;;;14.57;72.11;97950.41;5076225;28;20568;-71
2022/05/11 02:37:47;;;;;;;15.53;14.33;;;15.50;78.20;;;14.44;72.58;97948.78;5081659;28;20470;-70
2022/05/11 02:40:19;;;;;;;14.87;13.67;;;15.40;78.50;;;14.26;73.58;97962.56;5083480;28;20510;-70
2022/05/11 02:42:47;;;;;;;16.70;15.30;;;15.20;79.50;;;14.16;73.95;97961.28;5083793;28;20594;-70
2022/05/11 02:45:17;;;;;;;15.03;13.43;;;15.10;79.80;;;14.02;74.35;97968.03;5079497;28;20470;-70
2022/05/11 02:47:46;;;;;;;16.33;15.03;;;14.90;80.30;;;13.97;74.91;97957.06;5084664;28;20738;-70
2022/05/11 02:50:19;;;;;;;16.63;15.17;;;14.90;81.00;;;14.04;74.88;97963.22;5077537;28;20562;-71
2022/05/11 02:52:46;;;;;;;16.07;14.73;;;14.90;81.80;;;14.03;74.65;97956.13;5080251;28;20535;-71
2022/05/11 02:55:13;;;;;;;16.57;15.07;;;14.90;81.70;;;14.24;73.88;97953.81;5089608;28;20478;-71
2022/05/11 02:57:40;;;;;;;16.03;14.73;;;15.10;81.20;;;14.28;73.39;97953.09;5081798;28;20547;-70
2022/05/11 03:00:12;;;;;;;16.00;14.70;;;15.20;80.70;;;14.23;73.61;97954.91;5082272;28;20455;-70
2022/05/11 03:02:41;;;;;;;16.43;15.03;;;15.20;80.40;;;14.31;72.92;97957.22;5085839;28;20482;-70
2022/05/11 03:05:10;;;;;;;16.40;14.90;;;15.20;80.50;;;14.25;73.35;97950.84;5080971;28;21239;-70
2022/05/11 03:07:37;;;;;;;14.47;13.37;;;15.20;80.10;;;14.26;72.94;97948.97;5077584;28;22163;-70
2022/05/11 03:10:06;;;;;;;16.03;14.37;;;15.20;80.30;;;14.21;73.57;97957.03;5091544;28;20540;-70
2022/05/11 03:12:34;;;;;;;15.43;14.17;;;15.20;80.50;;;14.09;73.46;97955.16;5084851;28;20455;-70
2022/05/11 03:15:04;;;;;;;16.03;14.40;;;15.10;80.40;;;14.03;74.10;97959.66;5083356;28;20459;-70
2022/05/11 03:17:31;;;;;;;16.30;14.90;;;15.00;80.60;;;13.96;74.27;97961.69;5081682;28;20495;-70
2022/05/11 03:20:00;;;;;;;16.27;14.97;;;14.90;80.90;;;13.99;74.07;97952.22;5084891;28;20824;-70
2022/05/11 03:22:27;;;;;;;17.50;16.00;;;14.90;81.10;;;14.05;73.88;97950.44;5079275;28;20802;-69
2022/05/11 03:24:55;;;;;;;15.30;14.00;;;15.00;81.20;;;14.05;73.89;97955.88;5079102;28;20463;-70
2022/05/11 03:27:22;;;;;;;16.30;15.00;;;15.00;81.10;;;13.97;74.39;97959.78;5074957;28;20551;-71
2022/05/11 03:29:50;;;;;;;17.97;16.10;;;15.00;81.20;;;13.96;74.09;97963.56;5086240;28;20458;-71
2022/05/11 03:35:05;;;;;;;17.13;15.43;;;14.90;81.30;;;13.98;74.22;97953.28;5082115;28;20834;-71
2022/05/11 03:37:33;;;;;;;16.77;15.37;;;14.90;81.30;;;13.86;74.68;97959.56;5078306;28;20470;-72
2022/05/11 03:40:03;;;;;;;17.33;15.93;;;14.90;81.50;;;13.84;74.65;97956.25;5084171;28;20468;-71
2022/05/11 03:42:33;;;;;;;17.07;15.57;;;14.80;81.60;;;13.89;75.28;97963.69;5076398;28;20491;-71
2022/05/11 03:45:09;;;;;;;17.50;15.93;;;14.80;81.80;;;13.97;74.60;97948.94;5077692;28;20455;-70
2022/05/11 03:47:36;;;;;;;16.07;14.77;;;14.90;81.80;;;14.03;74.40;97948.00;5076980;28;20766;-71
2022/05/11 03:50:06;;;;;;;17.20;15.70;;;15.00;81.60;;;13.98;74.38;97950.56;5075835;28;20561;-71
2022/05/11 03:52:33;;;;;;;18.30;16.67;;;15.00;81.50;;;13.94;74.42;97961.09;5077109;28;20447;-72
2022/05/11 03:55:00;;;;;;;16.50;15.00;;;14.90;81.40;;;14.04;73.98;97949.63;5084438;28;20541;-72
2022/05/11 03:57:27;;;;;;;16.60;15.27;;;15.00;81.30;;;13.99;74.51;97957.66;5081665;28;20970;-71
2022/05/11 03:59:54;;;;;;;16.93;15.43;;;15.00;81.40;;;14.02;73.71;97951.75;5082398;28;20459;-71
2022/05/11 04:02:22;;;;;;;17.10;15.70;;;15.00;81.10;;;14.08;74.02;97953.50;5083178;28;20465;-71
2022/05/11 04:04:49;;;;;;;15.67;14.40;;;15.00;81.10;;;14.10;73.53;97953.25;5077446;28;20455;-72
2022/05/11 04:07:17;;;;;;;16.00;14.60;;;15.10;80.90;;;14.27;73.32;97948.75;5077204;28;20556;-72
2022/05/11 04:09:44;;;;;;;17.03;15.43;;;15.20;81.20;;;14.24;72.72;97949.19;5089868;28;20455;-72
2022/05/11 04:12:12;;;;;;;15.67;14.37;;;15.20;80.50;;;14.29;72.22;97940.34;5085796;28;20455;-72
2022/05/11 04:14:40;;;;;;;17.13;15.80;;;15.20;80.40;;;14.25;72.59;97948.13;5080975;28;20553;-72
2022/05/11 04:17:07;;;;;;;17.23;15.73;;;15.20;80.20;;;14.29;72.50;97940.34;5080522;28;20462;-70
2022/05/11 04:19:34;;;;;;;18.63;16.97;;;15.30;80.20;;;14.38;72.24;97949.75;5083652;28;20482;-70
2022/05/11 04:22:01;;;;;;;16.40;14.90;;;15.30;80.10;;;14.29;72.65;97948.50;5083150;28;20465;-70
2022/05/11 04:24:29;;;;;;;16.77;15.33;;;15.30;80.10;;;14.27;72.40;97926.16;5084810;28;20448;-71
2022/05/11 04:26:58;;;;;;;16.30;14.60;;;15.30;80.10;;;14.38;72.69;97949.75;5078909;28;20487;-70
2022/05/11 04:29:25;;;;;;;17.77;16.07;;;15.40;80.10;;;14.28;72.35;97936.81;5078808;28;20707;-71
2022/05/11 04:31:55;;;;;;;17.47;15.70;;;15.40;80.00;;;14.35;72.56;97950.25;5080034;28;20838;-72
2022/05/11 04:34:23;;;;;;;17.70;15.97;;;15.40;80.20;;;14.52;72.17;97946.75;5079412;28;20534;-71
2022/05/11 04:36:50;;;;;;;17.53;15.83;;;15.40;80.10;;;14.39;72.08;97945.97;5080607;28;20470;-71
2022/05/11 04:39:18;;;;;;;14.73;13.23;;;15.40;80.00;;;15.02;73.28;97954.22;5080105;28;20491;-74
2022/05/11 04:41:47;;;;;;;17.43;16.00;;;15.70;81.80;;;15.21;70.96;97951.25;5077244;28;21273;-75
2022/05/11 04:44:14;;;;;;;15.50;14.10;;;16.00;79.40;;;15.90;68.78;97951.19;5088899;28;20491;-74
2022/05/11 04:46:41;;;;;;;14.73;13.20;;;16.40;79.90;;;16.10;67.05;97896.94;5079171;28;20448;-73
2022/05/11 04:49:19;;;;;;;16.00;14.60;;;17.00;78.60;;;16.52;66.39;97957.41;5078066;28;20452;-79
2022/05/11 04:51:47;;;;;;;18.40;13.40;;;17.30;77.10;;;16.77;65.13;97954.13;5078535;28;20562;-76
2022/05/11 04:54:15;;;;;;;17.60;15.90;;;17.50;77.10;;;16.73;65.18;97963.06;5079642;28;20575;-76
2022/05/11 04:56:42;;;;;;;17.73;16.13;;;17.50;76.50;;;16.26;65.15;97965.28;5081970;28;20490;-81
2022/05/11 04:59:13;;;;;;;16.83;15.33;;;17.40;75.60;;;16.48;65.48;97961.72;5086249;28;20548;-76
2022/05/11 05:01:40;;;;;;;16.17;13.90;;;17.40;76.00;;;16.90;64.53;97950.13;5086989;28;20542;-79
2022/05/11 05:04:08;;;;;;;15.87;14.23;;;17.60;76.40;;;17.56;62.74;97960.00;5086996;28;20492;-80
2022/05/11 05:06:36;;;;;;;15.33;14.03;;;18.10;75.50;;;16.64;63.36;97954.53;5080566;28;20458;-71
2022/05/11 05:09:06;;;;;;;17.23;15.77;;;17.90;73.70;;;16.16;64.70;97959.72;5076160;28;21008;-76
2022/05/11 05:11:34;;;;;;;17.00;15.60;;;17.50;74.30;;;16.28;65.12;97954.94;5093219;28;20467;-77
2022/05/11 05:14:04;;;;;;;16.10;14.70;;;17.40;74.60;;;16.25;65.07;97963.63;5086598;28;20448;-73
2022/05/11 05:16:33;;;;;;;17.17;15.67;;;17.40;74.30;;;16.19;64.97;97965.47;5075681;28;20452;-75
2022/05/11 05:19:00;;;;;;;17.30;15.80;;;17.40;74.20;;;16.00;65.91;97973.16;5078428;28;20474;-75
2022/05/11 05:21:27;;;;;;;16.73;15.33;;;17.30;74.30;;;16.00;65.69;97962.25;5079001;28;20487;-74
2022/05/11 05:23:54;;;;;;;17.07;15.53;;;17.10;74.60;;;15.89;66.31;97965.88;5084494;28;20800;-79
2022/05/11 05:26:22;;;;;;;18.43;16.73;;;17.00;74.90;;;15.84;66.56;97967.41;5079597;28;20462;-74
2022/05/11 05:31:35;;;;;;;19.73;15.57;;;17.00;75.30;;;16.07;65.88;97962.88;5034642;28;21166;-78
2022/05/11 05:34:02;;;;;;;17.37;15.77;;;17.30;74.80;;;16.57;64.63;97973.81;5076830;28;20452;-75
2022/05/11 05:36:31;;;;;;;16.90;15.50;;;17.70;74.10;;;16.58;64.23;97972.72;5076905;28;20455;-79
2022/05/11 05:38:59;;;;;;;16.93;15.43;;;17.80;73.80;;;16.76;63.92;97971.56;5079055;28;20467;-79
2022/05/11 05:41:28;;;;;;;19.37;17.20;;;17.90;73.80;;;17.42;62.25;97976.00;5088880;28;20547;-80
2022/05/11 05:43:56;;;;;;;16.77;15.23;;;18.40;72.90;;;17.82;61.01;97973.00;5103313;27;20455;-80
2022/05/11 05:46:25;;;;;;;18.23;16.13;;;19.00;71.90;;;17.70;61.12;97965.81;5077902;28;20448;-76
2022/05/11 05:48:56;;;;;;;18.30;16.70;;;19.10;71.10;;;18.08;59.48;97938.44;5085017;28;20460;-75
2022/05/11 05:51:25;;;;;;;18.10;16.27;;;19.40;70.70;;;18.19;59.26;97971.31;5078060;28;20472;-79
2022/05/11 05:53:52;;;;;;;17.93;16.13;;;19.60;69.90;;;18.19;59.69;97961.19;5082613;28;20452;-82
2022/05/11 05:56:20;;;;;;;17.50;15.70;;;19.60;70.10;;;19.01;57.59;97964.44;5083125;28;20578;-79
2022/05/11 05:58:47;;;;;;;17.27;15.77;;;20.00;69.60;;;19.45;55.98;97955.69;5080509;28;20482;-79
2022/05/11 06:01:16;;;;;;;20.00;16.13;;;20.60;68.20;;;19.70;54.82;97962.25;5080014;28;21099;-80
2022/05/11 06:03:46;;;;;;;17.80;16.07;;;21.00;67.00;;;19.07;56.84;97969.66;5105180;28;20448;-79
2022/05/11 06:06:15;;;;;;;17.10;15.33;;;20.60;66.80;;;18.76;57.60;97964.09;5086152;28;20458;-80
2022/05/11 06:08:42;;;;;;;16.30;14.70;;;20.30;67.10;;;18.38;59.21;97974.41;5077554;28;20518;-79
2022/05/11 06:11:10;;;;;;;17.50;15.80;;;19.70;68.20;;;18.27;59.38;97978.97;5079432;28;20468;-81
2022/05/11 06:13:38;;;;;;;18.60;16.07;;;19.40;68.80;;;18.20;60.46;97978.41;5074322;28;20460;-79
2022/05/11 06:16:11;;;;;;;17.00;15.37;;;19.20;69.70;;;18.29;59.65;97974.09;5078500;28;20947;-79
2022/05/11 06:18:44;;;;;;;16.30;14.90;;;19.20;69.60;;;18.02;60.45;97972.31;5096296;27;20537;-79
2022/05/11 06:21:14;;;;;;;15.97;14.43;;;19.10;69.80;;;18.04;60.32;97972.88;5084737;28;20455;-78
2022/05/11 06:23:42;;;;;;;17.27;15.53;;;19.10;69.80;;;18.24;59.82;97985.00;5080514;28;21002;-79
2022/05/11 06:26:10;;;;;;;15.63;14.20;;;19.20;69.80;;;18.21;60.09;97974.59;5076760;28;20501;-81
2022/05/11 06:28:39;;;;;;;17.27;15.77;;;19.20;69.80;;;18.25;59.96;97978.44;5079148;28;20460;-79
2022/05/11 06:31:08;;;;;;;18.40;16.00;;;19.30;69.80;;;18.31;59.85;97979.28;5078969;28;20524;-79
2022/05/11 06:33:35;;;;;;;16.50;14.60;;;19.20;69.70;;;18.09;60.39;97980.28;5097466;28;20460;-78
2022/05/11 06:36:04;;;;;;;16.70;15.07;;;19.10;69.60;;;18.14;60.36;97968.56;5080085;28;20448;-77
2022/05/11 06:41:28;;;;;;;15.70;14.00;;;19.40;69.90;;;18.67;59.15;97980.22;5079151;28;20513;-77
2022/05/11 06:43:55;;;;;;;16.23;14.60;;;19.50;69.70;;;18.61;59.22;97972.28;5082434;28;20504;-75
2022/05/11 06:46:23;;;;;;;16.60;14.93;;;19.60;69.60;;;18.90;58.57;97978.09;5081462;28;20456;-77
2022/05/11 06:48:51;;;;;;;16.10;14.67;;;19.70;69.30;;;19.00;58.31;97973.75;5079025;28;20483;-77
2022/05/11 06:51:20;;;;;;;15.47;14.20;;;19.80;69.10;;;19.07;58.05;97974.31;5084271;28;20562;-78
2022/05/11 06:59:24;;;;;;;14.83;13.63;;;20.00;68.80;;;18.94;58.26;97929.94;5083794;28;20440;-77
2022/05/11 07:01:53;;;;;;;15.03;13.83;;;20.10;69.10;;;19.31;57.93;97962.81;5085491;28;20456;-78
2022/05/11 07:04:23;;;;;;;15.47;14.07;;;20.10;68.90;;;19.06;57.75;97909.72;5088462;28;21294;-77
2022/05/11 07:06:51;;;;;;;16.80;15.10;;;20.20;68.90;;;19.31;58.01;97962.81;5080809;28;20455;-77
2022/05/11 07:09:20;;;;;;;15.17;13.13;;;20.30;68.90;;;19.50;57.67;97960.34;5059473;28;20445;-78
2022/05/11 07:14:33;;;;;;;16.17;14.47;;;20.40;68.90;;;19.50;57.17;97922.00;5086417;28;20452;-78
2022/05/11 07:17:00;;;;;;;14.87;13.47;;;20.60;68.80;;;19.96;56.84;97968.50;5082139;28;20464;-78
2022/05/11 07:19:27;;;;;;;13.83;12.63;;;20.70;68.70;;;20.10;56.07;97957.78;5087180;28;20456;-78
2022/05/11 07:21:56;;;;;;;14.87;13.40;;;20.90;68.30;;;20.08;55.88;97935.28;5086922;28;20458;-78
2022/05/11 07:24:25;;;;;;;13.73;12.43;;;21.00;68.00;;;20.27;55.99;97956.63;5079108;28;20517;-79
2022/05/11 07:26:54;;;;;;;15.33;13.47;;;21.10;68.00;;;20.23;56.00;97958.28;5080168;28;20872;-78
2022/05/11 07:29:22;;;;;;;13.83;12.53;;;21.10;67.80;;;20.39;55.73;97948.88;5085929;28;20459;-78
2022/05/11 07:31:49;;;;;;;13.17;12.07;;;21.20;68.00;;;20.73;54.89;97946.53;5081799;28;20475;-78
2022/05/11 07:34:16;;;;;;;13.67;12.30;;;21.40;67.80;;;20.67;54.97;97943.78;5091008;28;20785;-78
2022/05/11 07:36:43;;;;;;;13.87;10.30;;;21.50;67.40;;;20.87;54.36;97942.06;5087205;28;20478;-79
2022/05/11 07:39:11;;;;;;;17.03;12.60;;;21.60;66.80;;;21.04;53.82;97946.34;5078364;28;20458;-77
2022/05/11 07:41:39;;;;;;;12.07;10.97;;;21.80;66.70;;;21.33;53.05;97940.06;5079869;28;20513;-78
2022/05/11 07:44:07;;;;;;;11.07;10.17;;;22.00;66.40;;;21.05;53.04;97909.53;5073561;28;20546;-78
2022/05/11 07:46:34;;;;;;;10.50;9.63;;;22.10;65.90;;;21.32;52.86;97936.47;5077308;28;20447;-81
2022/05/11 07:49:02;;;;;;;10.50;9.50;;;22.10;65.70;;;21.36;52.41;97937.53;5083276;28;21378;-80
2022/05/11 07:51:30;;;;;;;9.73;8.83;;;22.20;65.20;;;21.21;52.36;97919.28;5080389;28;20480;-80
2022/05/11 07:53:57;;;;;;;9.30;8.43;;;22.20;65.20;;;21.50;51.99;97942.38;5079782;28;20998;-77
2022/05/11 08:02:01;;;;;;;8.57;7.80;;;22.40;64.30;;;21.70;51.00;97933.13;5058321;28;20449;-78
2022/05/11 08:04:28;;;;;;;8.70;8.00;;;22.40;63.70;;;21.99;50.11;97940.53;5077943;28;20617;-78
2022/05/11 08:06:55;;;;;;;7.90;7.30;;;22.60;63.30;;;22.00;50.32;97933.91;5074025;28;20466;-78
2022/05/11 08:09:23;;;;;;;7.80;7.07;;;22.70;63.10;;;22.11;50.09;97936.56;5073054;28;20457;-77
2022/05/11 08:11:52;;;;;;;9.53;7.90;;;22.80;63.00;;;22.12;49.78;97938.19;5093374;28;20868;-78
2022/05/11 08:14:20;;;;;;;7.40;6.90;;;22.90;62.50;;;22.21;49.40;97934.50;5078398;28;20460;-76
2022/05/11 08:16:52;;;;;;;7.83;7.03;;;23.00;62.50;;;22.19;49.75;97938.63;5082624;28;20587;-78
2022/05/11 08:19:19;;;;;;;8.30;7.60;;;22.90;62.60;;;22.39;49.39;97934.00;5078528;28;20454;-79
2022/05/11 08:21:47;;;;;;;7.90;7.20;;;23.00;62.30;;;22.52;49.18;97941.56;5101865;28;20453;-77
2022/05/11 08:24:16;;;;;;;7.87;7.20;;;23.10;62.20;;;22.36;49.12;97936.22;5096812;28;20435;-77
2022/05/11 08:26:45;;;;;;;6.60;6.10;;;23.10;61.70;;;22.45;48.59;97930.06;5102376;28;20541;-78
2022/05/11 08:33:18;;;;;;;7.13;6.63;;;23.20;61.30;;;22.46;48.55;97939.94;5085798;28;20448;-77
2022/05/11 08:34:48;;;;;;;7.97;7.27;;;23.30;60.70;;;22.64;47.83;97919.91;5079172;28;20498;-80
2022/05/11 08:37:15;;;;;;;6.63;6.13;;;23.40;60.50;;;22.68;48.16;97922.88;5079320;28;21015;-80
2022/05/11 08:39:43;;;;;;;7.23;6.63;;;23.40;60.80;;;22.56;47.85;97920.59;5078126;28;20841;-80
2022/05/11 08:42:13;;;;;;;6.63;5.83;;;23.30;60.20;;;22.61;47.46;97928.75;5082268;28;20494;-82
2022/05/11 08:44:47;;;;;;;6.43;5.83;;;23.30;59.80;;;22.63;47.53;97925.72;5074107;28;20955;-80
2022/05/11 08:47:41;;;;;;;7.77;6.67;;;23.30;59.70;;;22.71;47.53;97902.22;5081308;28;20455;-81
2022/05/11 08:50:13;;;;;;;6.83;6.20;;;23.50;59.80;;;22.80;47.03;97925.19;5082563;28;20967;-80
2022/05/11 08:52:51;;;;;;;6.50;6.00;;;23.50;59.30;;;22.76;47.40;97913.13;5081195;28;20964;-83
2022/05/11 08:55:34;;;;;;;7.17;6.47;;;23.50;59.50;;;22.80;48.15;97927.94;5084083;28;20569;-77
2022/05/11 08:58:13;;;;;;;7.00;6.50;;;23.50;60.10;;;22.88;46.89;97918.19;5094636;28;20452;-78
2022/05/11 09:00:53;;;;;;;6.93;6.33;;;23.60;59.30;;;22.69;47.33;97887.94;5099477;27;20470;-79
2022/05/11 09:03:33;;;;;;;6.67;6.07;;;23.60;59.40;;;23.01;46.40;97916.63;5079156;28;20507;-78
2022/05/11 09:06:03;;;;;;;6.70;6.20;;;23.70;58.80;;;23.13;45.15;97918.91;5080181;28;20893;-79
2022/05/11 09:08:34;;;;;;;9.57;5.63;;;23.80;58.30;;;23.26;45.43;97922.81;5085295;28;20539;-78
2022/05/11 09:11:02;;;;;;;6.93;6.43;;;23.90;58.30;;;23.18;45.80;97924.31;5092179;28;20543;-79
2022/05/11 09:13:29;;;;;;;6.97;6.47;;;23.90;58.40;;;23.19;45.83;97921.28;5088624;28;20479;-80
2022/05/11 09:16:01;;;;;;;8.33;6.60;;;23.90;58.10;;;23.49;45.64;97921.91;5088577;28;20452;-80
2022/05/11 09:18:42;;;;;;;6.93;5.87;;;24.00;58.30;;;23.53;44.79;97910.25;5088274;28;20490;-81
2022/05/11 09:21:29;;;;;;;7.67;7.07;;;24.20;57.60;;;23.66;44.76;97909.47;5080874;28;20500;-80
2022/05/11 09:24:14;;;;;;;5.00;4.60;;;24.30;57.60;;;23.89;41.84;97917.88;5087203;28;20454;-80
2022/05/11 09:26:46;;;;;;;5.37;4.97;;;24.50;55.70;;;23.80;42.60;97914.19;5083430;28;20476;-81
2022/05/11 09:29:21;;;;;;;4.27;3.97;;;24.50;55.60;;;23.71;40.72;97912.13;5089561;28;20483;-79
2022/05/11 09:31:52;;;;;;;7.10;4.90;;;24.50;54.20;;;23.75;41.68;97913.16;5080169;28;20559;-81
2022/05/11 09:34:28;;;;;;;5.07;4.67;;;24.40;54.50;;;23.82;41.74;97918.28;5087130;28;20510;-80
2022/05/11 09:37:02;;;;;;;4.87;4.47;;;24.50;54.60;;;24.10;40.47;97906.44;5087244;28;20510;-78
2022/05/11 09:39:33;;;;;;;4.90;4.50;;;24.70;54.10;;;24.18;39.58;97911.22;5095441;28;20453;-79
2022/05/11 09:42:16;;;;;;;4.63;4.33;;;24.80;53.10;;;24.20;39.21;97909.00;5088561;28;20517;-78
2022/05/11 09:44:46;;;;;;;4.70;4.30;;;24.90;52.80;;;24.03;39.36;97902.13;5088852;28;20454;-76
2022/05/11 09:47:29;;;;;;;4.83;4.53;;;24.80;52.60;;;24.03;39.01;97904.91;5085215;28;21010;-81
2022/05/11 09:50:21;;;;;;;5.33;4.53;;;24.70;52.60;;;24.28;39.64;97902.75;5083569;28;21007;-76
2022/05/11 09:52:50;;;;;;;4.93;4.50;;;24.80;52.70;;;24.33;38.47;97883.28;5084508;28;20904;-79
2022/05/11 09:55:24;;;;;;;6.07;4.40;;;25.10;52.00;;;24.39;39.39;97897.81;5081127;28;20495;-78
2022/05/11 09:58:00;;;;;;;5.70;4.30;;;25.10;52.50;;;24.36;39.70;97890.16;5077519;28;20478;-76
2022/05/11 10:00:35;;;;;;;4.33;4.03;;;25.10;52.60;;;24.20;40.39;97892.44;5077990;28;20458;-79
2022/05/11 10:03:08;;;;;;;4.60;4.30;;;25.00;52.70;;;24.21;40.84;97896.84;5087121;28;20478;-76
2022/05/11 10:05:41;;;;;;;4.23;3.97;;;25.00;53.40;;;23.98;40.74;97893.94;5073878;28;20812;-80
2022/05/11 10:08:21;;;;;;;5.10;4.70;;;24.80;52.80;;;23.80;41.25;97906.69;5079107;28;20469;-75
2022/05/11 10:10:54;;;;;;;6.20;5.60;;;24.60;53.10;;;23.87;41.11;97898.03;5079656;28;20589;-76
2022/05/11 10:13:29;;;;;;;5.27;4.77;;;24.50;53.20;;;24.23;40.83;97882.72;5083709;28;20965;-78
2022/05/11 10:21:54;;;;;;;4.50;4.00;;;24.80;52.40;;;24.25;38.49;97870.25;5027045;28;20834;-77
2022/05/11 10:24:35;;;;;;;4.80;4.47;;;24.90;51.30;;;24.34;38.31;97870.31;5068219;28;21159;-81
2022/05/11 10:27:10;;;;;;;6.63;4.63;;;25.10;51.10;;;24.64;38.63;97875.44;5082518;28;20541;-82
2022/05/11 10:30:03;;;;;;;5.10;4.70;;;25.20;51.50;;;24.61;38.35;97866.66;5078497;28;20455;-77
2022/05/11 10:32:41;;;;;;;5.13;4.37;;;25.40;51.30;;;24.93;38.66;97864.03;5077656;28;20493;-77
2022/05/11 10:35:15;;;;;;;4.87;4.37;;;25.50;51.50;;;24.95;38.41;97866.47;5099462;28;20542;-77
2022/05/11 10:38:07;;;;;;;5.73;4.70;;;25.60;51.20;;;25.03;37.73;97869.31;5080880;28;20461;-79
2022/05/11 10:40:48;;;;;;;4.30;3.90;;;25.60;51.40;;;24.92;36.94;97861.56;5079379;28;20461;-77
2022/05/11 10:43:37;;;;;;;5.53;4.40;;;25.60;50.00;;;25.05;36.75;97860.69;5082898;28;20950;-75
2022/05/11 10:46:12;;;;;;;5.07;4.53;;;25.70;49.90;;;25.31;36.71;97855.31;5077489;28;21151;-76
2022/05/11 10:49:03;;;;;;;4.73;4.33;;;25.90;50.10;;;25.48;35.32;97845.53;5078613;28;20492;-77
2022/05/11 10:51:44;;;;;;;4.93;3.93;;;26.20;49.60;;;25.71;35.57;97849.03;5081799;28;20452;-80
2022/05/11 10:54:25;;;;;;;4.20;3.90;;;26.30;49.20;;;26.07;34.72;97841.63;5084506;28;20500;-79
2022/05/11 10:57:05;;;;;;;4.40;4.10;;;26.60;49.10;;;26.02;35.18;97839.84;5097585;28;20451;-76